createdAt,value
2018-06-28T00:02:01.861Z,2.20
2018-06-28T00:04:29.868Z,2.30
2018-06-28T00:06:57.700Z,2.20
2018-06-28T00:09:25.720Z,2.30
2018-06-28T00:11:53.845Z,2.35
2018-06-28T00:14:21.885Z,2.20
2018-06-28T00:16:49.944Z,2.70
2018-06-28T00:19:18.045Z,2.50
2018-06-28T00:21:46.080Z,2.30
2018-06-28T00:24:14.108Z,2.55
2018-06-28T00:26:42.171Z,2.67
2018-06-28T00:29:10.205Z,3.80
2018-06-28T00:31:38.255Z,3.80
2018-06-28T00:34:06.288Z,3.05
2018-06-28T00:36:34.328Z,3.02
2018-06-28T00:39:02.439Z,3.00
2018-06-28T00:41:30.700Z,2.60
2018-06-28T00:43:58.734Z,2.50
2018-06-28T00:46:26.781Z,2.60
2018-06-28T00:48:54.831Z,2.90
2018-06-28T00:51:22.875Z,2.70
2018-06-28T00:53:50.908Z,2.70
2018-06-28T00:56:18.959Z,2.70
2018-06-28T00:58:46.976Z,2.67
2018-06-28T01:01:15.018Z,3.20
2018-06-28T01:03:43.100Z,3.45
2018-06-28T01:06:11.160Z,3.50
2018-06-28T01:08:39.359Z,3.10
2018-06-28T01:11:07.384Z,3.72
2018-06-28T01:13:35.428Z,3.75
2018-06-28T01:16:03.464Z,5.47
2018-06-28T01:18:31.468Z,4.50
2018-06-28T01:21:00.881Z,4.62
2018-06-28T01:23:28.917Z,4.90
2018-06-28T01:25:56.948Z,4.70
2018-06-28T01:28:24.969Z,4.15
2018-06-28T01:30:53.019Z,4.37
2018-06-28T01:33:21.092Z,4.72
2018-06-28T01:35:49.173Z,4.00
2018-06-28T01:38:17.323Z,4.10
2018-06-28T01:40:45.396Z,3.67
2018-06-28T01:43:32.621Z,4.00
2018-06-28T01:46:00.724Z,4.40
2018-06-28T01:48:28.769Z,5.70
2018-06-28T01:50:57.357Z,5.80
2018-06-28T01:53:25.829Z,5.35
2018-06-28T01:55:53.871Z,5.50
2018-06-28T01:58:21.877Z,6.30
2018-06-28T02:00:49.953Z,6.33
2018-06-28T02:03:18.217Z,6.30
2018-06-28T02:05:46.922Z,6.70
2018-06-28T02:08:14.949Z,5.30
2018-06-28T02:10:43.157Z,4.00
2018-06-28T02:13:11.192Z,4.30
2018-06-28T02:15:39.213Z,4.60
2018-06-28T02:18:07.981Z,3.80
2018-06-28T02:20:36.049Z,4.87
2018-06-28T02:23:04.095Z,3.95
2018-06-28T02:25:32.166Z,5.40
2018-06-28T02:28:00.141Z,5.62
2018-06-28T02:30:28.152Z,4.60
2018-06-28T02:32:56.189Z,4.00
2018-06-28T02:35:24.248Z,4.70
2018-06-28T02:37:52.265Z,4.70
2018-06-28T02:40:20.331Z,4.47
2018-06-28T02:42:48.375Z,4.90
2018-06-28T02:45:16.445Z,4.12
2018-06-28T02:47:44.493Z,4.20
2018-06-28T02:50:12.510Z,5.53
2018-06-28T02:52:40.584Z,3.90
2018-06-28T02:55:08.645Z,4.22
2018-06-28T02:57:36.668Z,3.97
2018-06-28T03:00:05.417Z,3.90
2018-06-28T03:02:33.258Z,3.92
2018-06-28T03:05:01.316Z,4.00
2018-06-28T03:07:29.361Z,3.90
2018-06-28T03:09:57.392Z,3.98
2018-06-28T03:12:25.232Z,3.70
2018-06-28T03:14:53.276Z,3.87
2018-06-28T03:17:21.288Z,4.40
2018-06-28T03:19:49.353Z,4.12
2018-06-28T03:22:17.389Z,4.03
2018-06-28T03:24:45.414Z,4.12
2018-06-28T03:27:13.437Z,4.10
2018-06-28T03:29:41.494Z,4.10
2018-06-28T03:32:09.516Z,3.55
2018-06-28T03:34:37.544Z,3.67
2018-06-28T03:37:05.560Z,3.90
2018-06-28T03:39:33.617Z,3.90
2018-06-28T03:42:01.660Z,4.00
2018-06-28T03:44:29.684Z,4.25
2018-06-28T03:46:57.700Z,4.30
2018-06-28T03:49:25.741Z,4.40
2018-06-28T03:51:53.765Z,4.40
2018-06-28T03:54:21.793Z,4.67
2018-06-28T03:56:49.829Z,4.40
2018-06-28T03:59:17.926Z,4.80
2018-06-28T04:01:45.924Z,4.30
2018-06-28T04:04:13.962Z,4.50
2018-06-28T04:06:42.027Z,4.80
2018-06-28T04:09:11.168Z,5.10
2018-06-28T04:11:39.253Z,4.20
2018-06-28T04:14:07.283Z,4.60
2018-06-28T04:16:36.010Z,4.22
2018-06-28T04:19:04.024Z,4.47
2018-06-28T04:21:32.113Z,4.60
2018-06-28T04:24:00.157Z,4.85
2018-06-28T04:26:28.181Z,4.60
2018-06-28T04:28:56.207Z,4.30
2018-06-28T04:31:24.260Z,4.60
2018-06-28T04:33:52.298Z,4.00
2018-06-28T04:36:20.325Z,5.12
2018-06-28T04:38:48.344Z,4.65
2018-06-28T04:41:16.381Z,4.60
2018-06-28T04:43:44.428Z,5.53
2018-06-28T04:46:12.458Z,5.00
2018-06-28T04:48:40.504Z,5.90
2018-06-28T04:51:08.528Z,6.10
2018-06-28T04:53:36.561Z,5.50
2018-06-28T04:56:04.775Z,5.20
2018-06-28T04:58:32.853Z,5.73
2018-06-28T05:01:00.869Z,5.40
2018-06-28T05:03:28.880Z,5.30
2018-06-28T05:05:56.916Z,5.90
2018-06-28T05:08:24.747Z,5.12
2018-06-28T05:10:52.790Z,5.37
2018-06-28T05:13:20.821Z,5.50
2018-06-28T05:15:48.852Z,5.47
2018-06-28T05:18:16.868Z,5.33
2018-06-28T05:20:44.718Z,5.37
2018-06-28T05:23:12.749Z,5.30
2018-06-28T05:25:40.780Z,4.95
2018-06-28T05:28:08.613Z,4.80
2018-06-28T05:30:36.665Z,5.25
2018-06-28T05:33:04.697Z,5.55
2018-06-28T05:35:32.742Z,5.00
2018-06-28T05:38:00.773Z,4.90
2018-06-28T05:40:28.843Z,5.70
2018-06-28T05:42:56.911Z,4.62
2018-06-28T05:45:24.948Z,5.10
2018-06-28T05:47:52.981Z,4.92
2018-06-28T05:50:21.021Z,4.73
2018-06-28T05:52:49.043Z,5.20
2018-06-28T05:55:16.892Z,5.50
2018-06-28T05:57:44.912Z,4.80
2018-06-28T06:00:12.960Z,4.90
2018-06-28T06:02:41.004Z,4.85
2018-06-28T06:05:09.029Z,4.90
2018-06-28T06:07:37.096Z,4.92
2018-06-28T06:10:05.132Z,4.58
2018-06-28T06:12:33.152Z,5.20
2018-06-28T06:15:01.196Z,4.60
2018-06-28T06:17:29.225Z,4.50
2018-06-28T06:19:57.262Z,4.75
2018-06-28T06:22:25.282Z,4.60
2018-06-28T06:24:57.135Z,5.00
2018-06-28T06:27:24.971Z,4.43
2018-06-28T06:29:53.009Z,4.40
2018-06-28T06:32:21.060Z,4.58
2018-06-28T06:34:49.092Z,4.20
2018-06-28T06:37:17.125Z,4.05
2018-06-28T06:39:45.214Z,3.95
2018-06-28T06:42:13.256Z,3.75
2018-06-28T06:44:41.534Z,4.10
2018-06-28T06:47:09.572Z,3.90
2018-06-28T06:49:37.608Z,4.12
2018-06-28T06:52:05.650Z,4.00
2018-06-28T06:54:33.685Z,4.20
2018-06-28T06:57:01.714Z,4.33
2018-06-28T06:59:29.756Z,4.17
2018-06-28T07:01:57.768Z,4.33
2018-06-28T07:04:25.882Z,3.90
2018-06-28T07:06:53.856Z,3.70
2018-06-28T07:09:21.895Z,4.30
2018-06-28T07:11:49.931Z,4.85
2018-06-28T07:14:18.073Z,4.00
2018-06-28T07:16:46.085Z,4.22
2018-06-28T07:19:14.105Z,4.10
2018-06-28T07:21:42.129Z,4.75
2018-06-28T07:24:18.486Z,3.40
2018-06-28T07:27:07.834Z,3.43
2018-06-28T07:29:41.439Z,3.27
2018-06-28T07:32:09.520Z,3.60
2018-06-28T07:34:38.114Z,3.70
2018-06-28T07:37:06.443Z,3.10
2018-06-28T07:39:36.459Z,3.00
2018-06-28T07:42:06.522Z,3.20
2018-06-28T07:44:40.277Z,3.30
2018-06-28T07:47:11.278Z,3.00
2018-06-28T07:49:40.981Z,5.08
2018-06-28T07:52:12.061Z,2.77
2018-06-28T07:54:47.876Z,3.52
2018-06-28T07:57:18.092Z,2.72
2018-06-28T07:59:47.573Z,2.72
2018-06-28T08:02:18.420Z,2.87
2018-06-28T08:04:50.268Z,3.02
2018-06-28T08:07:24.415Z,3.08
2018-06-28T08:09:55.722Z,3.10
2018-06-28T08:15:07.919Z,3.22
2018-06-28T08:17:35.990Z,3.30
2018-06-28T08:20:04.958Z,2.85
2018-06-28T08:22:33.092Z,2.92
2018-06-28T08:25:01.228Z,2.90
2018-06-28T08:27:29.236Z,2.70
2018-06-28T08:29:57.293Z,2.90
2018-06-28T08:32:25.361Z,2.60
2018-06-28T08:34:53.399Z,3.60
2018-06-28T08:37:21.424Z,3.30
2018-06-28T08:39:49.444Z,3.50
2018-06-28T08:42:17.485Z,2.70
2018-06-28T08:44:45.321Z,2.65
2018-06-28T08:47:13.368Z,2.30
2018-06-28T08:49:41.381Z,2.90
2018-06-28T08:52:09.220Z,2.72
2018-06-28T08:54:37.253Z,2.80
2018-06-28T08:57:05.312Z,2.83
2018-06-28T08:59:33.334Z,4.10
2018-06-28T09:02:01.393Z,3.33
2018-06-28T09:04:29.564Z,3.05
2018-06-28T09:06:57.616Z,3.15
2018-06-28T09:09:25.664Z,2.50
2018-06-28T09:11:53.727Z,3.47
2018-06-28T09:14:21.768Z,3.40
2018-06-28T09:16:50.232Z,2.98
2018-06-28T09:19:18.252Z,2.58
2018-06-28T09:21:46.293Z,3.00
2018-06-28T09:24:14.305Z,5.12
2018-06-28T09:26:42.341Z,2.98
2018-06-28T09:29:10.356Z,2.67
2018-06-28T09:31:38.418Z,3.20
2018-06-28T09:34:06.485Z,3.10
2018-06-28T09:36:34.607Z,3.50
2018-06-28T09:39:03.576Z,2.80
2018-06-28T09:41:31.877Z,2.58
2018-06-28T09:43:59.900Z,3.00
2018-06-28T09:46:27.933Z,3.20
2018-06-28T09:48:55.985Z,3.20
2018-06-28T09:51:24.409Z,3.80
2018-06-28T09:53:52.460Z,3.00
2018-06-28T09:56:20.287Z,3.30
2018-06-28T09:58:48.332Z,2.70
2018-06-28T10:01:16.356Z,2.80
2018-06-28T10:03:44.381Z,3.40
2018-06-28T10:06:12.415Z,2.70
2018-06-28T10:08:40.428Z,2.70
2018-06-28T10:11:08.471Z,2.47
2018-06-28T10:13:36.500Z,2.80
2018-06-28T10:16:04.909Z,2.80
2018-06-28T10:18:32.958Z,2.40
2018-06-28T10:21:01.016Z,2.80
2018-06-28T10:23:29.064Z,2.50
2018-06-28T10:25:57.092Z,2.65
2018-06-28T10:28:25.131Z,2.40
2018-06-28T10:30:53.156Z,2.80
2018-06-28T10:33:21.882Z,2.80
2018-06-28T10:35:49.716Z,2.60
2018-06-28T10:38:17.776Z,2.80
2018-06-28T10:40:45.789Z,2.50
2018-06-28T10:43:13.611Z,2.40
2018-06-28T10:45:41.668Z,2.20
2018-06-28T10:48:09.707Z,10.80
2018-06-28T10:50:37.540Z,2.57
2018-06-28T10:53:05.570Z,2.40
2018-06-28T10:55:33.609Z,2.42
2018-06-28T10:58:01.653Z,4.20
2018-06-28T11:00:29.723Z,3.87
2018-06-28T11:02:57.704Z,2.50
2018-06-28T11:05:25.724Z,4.80
2018-06-28T11:07:53.768Z,3.85
2018-06-28T11:10:21.831Z,4.85
2018-06-28T11:12:49.685Z,2.80
2018-06-28T11:15:17.511Z,3.17
2018-06-28T11:17:45.528Z,3.45
2018-06-28T11:20:13.565Z,2.50
2018-06-28T11:22:41.600Z,2.40
2018-06-28T11:25:09.643Z,2.80
2018-06-28T11:27:37.640Z,2.30
2018-06-28T11:30:05.660Z,2.50
2018-06-28T11:32:33.921Z,2.10
2018-06-28T11:35:01.941Z,2.10
2018-06-28T11:37:29.969Z,2.40
2018-06-28T11:39:58.017Z,3.17
2018-06-28T11:42:26.061Z,2.50
2018-06-28T11:44:54.100Z,3.33
2018-06-28T11:47:22.147Z,2.50
2018-06-28T11:49:50.220Z,2.77
2018-06-28T11:52:18.345Z,2.40
2018-06-28T11:54:46.332Z,2.37
2018-06-28T11:57:14.377Z,11.18
2018-06-28T11:59:42.453Z,3.10
2018-06-28T12:02:10.500Z,2.60
2018-06-28T12:04:38.335Z,2.50
2018-06-28T12:07:06.373Z,2.40
2018-06-28T12:09:34.406Z,3.30
2018-06-28T12:12:02.445Z,5.03
2018-06-28T12:14:30.516Z,2.40
2018-06-28T12:16:58.545Z,2.60
2018-06-28T12:19:26.597Z,2.40
2018-06-28T12:21:54.632Z,2.20
2018-06-28T12:24:22.689Z,2.62
2018-06-28T12:26:50.751Z,2.75
2018-06-28T12:29:18.801Z,2.40
2018-06-28T12:31:46.847Z,2.12
2018-06-28T12:34:15.080Z,2.40
2018-06-28T12:36:43.133Z,2.40
2018-06-28T12:39:11.216Z,2.05
2018-06-28T12:41:39.197Z,2.42
2018-06-28T12:44:07.269Z,2.62
2018-06-28T12:47:48.545Z,2.00
2018-06-28T12:50:16.605Z,2.33
2018-06-28T12:52:49.902Z,2.30
2018-06-28T12:55:18.883Z,2.00
2018-06-28T12:57:47.212Z,2.25
2018-06-28T13:00:15.652Z,1.90
2018-06-28T13:02:44.039Z,2.50
2018-06-28T13:05:13.128Z,3.12
2018-06-28T13:07:41.200Z,2.30
2018-06-28T13:10:11.762Z,7.05
2018-06-28T13:12:39.707Z,2.10
2018-06-28T13:15:09.200Z,2.92
2018-06-28T13:17:37.371Z,2.00
2018-06-28T13:20:06.073Z,2.00
2018-06-28T13:22:34.039Z,2.10
2018-06-28T13:25:02.401Z,2.25
2018-06-28T13:27:30.436Z,2.07
2018-06-28T13:29:58.477Z,1.90
2018-06-28T13:32:26.550Z,1.95
2018-06-28T13:34:54.585Z,2.15
2018-06-28T13:37:22.648Z,1.90
2018-06-28T13:39:50.696Z,1.90
2018-06-28T13:42:18.919Z,2.10
2018-06-28T13:44:46.833Z,1.87
2018-06-28T13:47:14.890Z,2.10
2018-06-28T13:49:42.971Z,1.85
2018-06-28T13:52:11.013Z,2.30
2018-06-28T13:54:39.056Z,2.33
2018-06-28T13:57:07.122Z,1.95
2018-06-28T13:59:35.149Z,2.00
2018-06-28T14:02:03.171Z,2.10
2018-06-28T14:04:31.208Z,1.87
2018-06-28T14:06:59.250Z,2.17
2018-06-28T14:09:27.333Z,1.80
2018-06-28T14:11:55.323Z,1.90
2018-06-28T14:14:23.372Z,2.08
2018-06-28T14:16:51.501Z,2.20
2018-06-28T14:19:19.544Z,2.15
2018-06-28T14:21:47.581Z,2.25
2018-06-28T14:24:15.616Z,1.90
2018-06-28T14:26:43.725Z,2.00
2018-06-28T14:29:11.778Z,2.67
2018-06-28T14:31:39.829Z,2.72
2018-06-28T14:34:07.909Z,4.72
2018-06-28T14:36:35.961Z,2.00
2018-06-28T14:39:05.668Z,1.70
2018-06-28T14:41:33.877Z,2.12
2018-06-28T14:44:01.879Z,2.10
2018-06-28T14:46:29.908Z,2.20
2018-06-28T14:48:57.941Z,2.50
2018-06-28T14:51:26.005Z,1.80
2018-06-28T14:53:54.033Z,2.00
2018-06-28T14:56:22.236Z,1.80
2018-06-28T14:58:50.264Z,1.80
2018-06-28T15:01:18.360Z,1.90
2018-06-28T15:03:46.420Z,2.10
2018-06-28T15:06:14.485Z,2.77
2018-06-28T15:08:42.544Z,1.95
2018-06-28T15:11:10.609Z,1.77
2018-06-28T15:13:38.896Z,1.90
2018-06-28T15:16:06.928Z,1.50
2018-06-28T15:18:34.955Z,1.52
2018-06-28T15:21:02.994Z,2.23
2018-06-28T15:23:31.093Z,1.45
2018-06-28T15:25:59.162Z,3.30
2018-06-28T15:28:27.172Z,1.70
2018-06-28T15:30:55.232Z,1.60
2018-06-28T15:33:23.307Z,1.60
2018-06-28T15:35:51.340Z,1.50
2018-06-28T15:38:19.369Z,1.82
2018-06-28T15:40:47.226Z,1.80
2018-06-28T15:43:15.276Z,1.60
2018-06-28T15:45:43.380Z,1.20
2018-06-28T15:48:11.393Z,1.40
2018-06-28T15:50:39.468Z,1.60
2018-06-28T15:53:07.537Z,1.90
2018-06-28T15:55:35.336Z,1.80
2018-06-28T15:58:03.407Z,3.25
2018-06-28T16:00:31.459Z,2.05
2018-06-28T16:02:59.539Z,1.60
2018-06-28T16:05:27.567Z,1.60
2018-06-28T16:07:55.612Z,1.70
2018-06-28T16:10:23.444Z,1.62
2018-06-28T16:12:51.491Z,1.90
2018-06-28T16:15:19.656Z,2.42
2018-06-28T16:17:47.695Z,2.12
2018-06-28T16:20:15.737Z,1.90
2018-06-28T16:22:43.803Z,2.42
2018-06-28T16:25:11.861Z,3.10
2018-06-28T16:27:39.913Z,1.57
2018-06-28T16:30:07.940Z,1.90
2018-06-28T16:32:35.807Z,2.02
2018-06-28T16:35:03.843Z,2.20
2018-06-28T16:37:32.008Z,1.70
2018-06-28T16:40:00.293Z,1.72
2018-06-28T16:42:28.344Z,1.90
2018-06-28T16:44:56.392Z,1.50
2018-06-28T16:47:24.441Z,1.77
2018-06-28T16:49:52.480Z,1.87
2018-06-28T16:52:20.520Z,1.92
2018-06-28T16:54:48.572Z,1.90
2018-06-28T16:57:16.605Z,1.70
2018-06-28T16:59:44.677Z,1.80
2018-06-28T17:02:12.675Z,1.60
2018-06-28T17:04:40.696Z,2.00
2018-06-28T17:07:08.730Z,2.00
2018-06-28T17:09:36.802Z,1.90
2018-06-28T17:12:04.817Z,3.22
2018-06-28T17:14:32.849Z,2.58
2018-06-28T17:17:00.924Z,2.98
2018-06-28T17:19:28.912Z,2.47
2018-06-28T17:21:56.975Z,1.85
2018-06-28T17:24:24.989Z,2.12
2018-06-28T17:26:53.033Z,1.70
2018-06-28T17:29:21.078Z,1.87
2018-06-28T17:31:49.258Z,2.77
2018-06-28T17:34:17.244Z,1.80
2018-06-28T17:36:45.270Z,1.92
2018-06-28T17:39:13.279Z,2.10
2018-06-28T17:41:41.317Z,1.80
2018-06-28T17:44:09.339Z,1.80
2018-06-28T17:46:37.371Z,1.98
2018-06-28T17:49:05.400Z,1.60
2018-06-28T17:51:33.424Z,2.20
2018-06-28T17:54:01.481Z,2.20
2018-06-28T17:56:29.570Z,2.10
2018-06-28T17:58:57.544Z,2.00
2018-06-28T18:01:25.576Z,1.80
2018-06-28T18:03:53.609Z,1.90
2018-06-28T18:06:21.439Z,2.40
2018-06-28T18:08:49.477Z,2.40
2018-06-28T18:11:17.509Z,2.80
2018-06-28T18:13:45.551Z,2.30
2018-06-28T18:16:13.593Z,2.33
2018-06-28T18:18:41.696Z,2.10
2018-06-28T18:21:10.002Z,2.77
2018-06-28T18:23:38.353Z,2.40
2018-06-28T18:26:06.404Z,2.70
2018-06-28T18:28:34.515Z,3.00
2018-06-28T18:31:02.549Z,3.00
2018-06-28T18:33:30.735Z,2.22
2018-06-28T18:35:58.777Z,2.30
2018-06-28T18:38:26.900Z,2.40
2018-06-28T18:40:54.868Z,2.30
2018-06-28T18:43:23.119Z,2.50
2018-06-28T18:45:51.389Z,2.20
2018-06-28T18:48:20.388Z,3.20
2018-06-28T18:50:48.473Z,2.40
2018-06-28T18:53:16.481Z,2.40
2018-06-28T18:55:44.541Z,2.90
2018-06-28T18:58:12.584Z,2.25
2018-06-28T19:00:40.754Z,3.30
2018-06-28T19:03:08.805Z,2.90
2018-06-28T19:05:36.844Z,2.75
2018-06-28T19:08:04.992Z,2.60
2018-06-28T19:10:38.490Z,2.62
2018-06-28T19:13:06.525Z,3.12
2018-06-28T19:15:40.144Z,2.10
2018-06-28T19:18:07.997Z,2.30
2018-06-28T19:20:36.068Z,3.67
2018-06-28T19:23:09.549Z,2.87
2018-06-28T19:25:37.600Z,2.40
2018-06-28T19:28:05.697Z,2.63
2018-06-28T19:31:37.109Z,3.02
2018-06-28T19:34:05.424Z,3.10
2018-06-28T19:36:33.477Z,2.50
2018-06-28T19:39:07.048Z,2.42
2018-06-28T19:41:40.714Z,2.70
2018-06-28T19:44:08.748Z,2.83
2018-06-28T19:46:36.787Z,3.30
2018-06-28T19:49:09.109Z,2.63
2018-06-28T19:51:42.564Z,2.55
2018-06-28T19:54:10.660Z,2.85
2018-06-28T19:56:38.657Z,2.50
2018-06-28T19:59:06.712Z,2.60
2018-06-28T20:01:40.160Z,2.85
2018-06-28T20:04:12.997Z,3.65
2018-06-28T20:06:42.597Z,3.00
2018-06-28T20:09:11.177Z,3.40
2018-06-28T20:11:39.208Z,3.98
2018-06-28T20:14:12.796Z,3.08
2018-06-28T20:16:46.336Z,4.30
2018-06-28T20:19:19.909Z,2.92
2018-06-28T20:21:47.936Z,2.90
2018-06-28T20:24:15.977Z,3.00
2018-06-28T20:26:49.508Z,3.50
2018-06-28T20:29:23.897Z,5.47
2018-06-28T20:31:57.695Z,5.40
2018-06-28T20:34:25.732Z,4.95
2018-06-28T20:36:53.798Z,4.30
2018-06-28T20:39:21.863Z,5.78
2018-06-28T20:41:49.915Z,4.30
2018-06-28T20:44:17.964Z,5.40
2018-06-28T20:46:46.031Z,7.17
2018-06-28T20:49:14.072Z,8.40
2018-06-28T20:51:42.108Z,8.15
2018-06-28T20:54:10.145Z,8.85
2018-06-28T20:56:38.181Z,7.50
2018-06-28T20:59:06.235Z,7.50
2018-06-28T21:01:34.276Z,7.10
2018-06-28T21:04:02.362Z,9.88
2018-06-28T21:06:30.195Z,8.08
2018-06-28T21:08:58.244Z,7.45
2018-06-28T21:11:26.304Z,8.00
2018-06-28T21:13:54.502Z,8.43
2018-06-28T21:16:22.538Z,8.35
2018-06-28T21:18:50.577Z,8.35
2018-06-28T21:21:18.717Z,7.40
2018-06-28T21:23:46.675Z,7.12
2018-06-28T21:26:14.723Z,7.15
2018-06-28T21:28:42.756Z,7.27
2018-06-28T21:31:10.811Z,8.35
2018-06-28T21:33:38.834Z,8.18
2018-06-28T21:36:06.872Z,8.30
2018-06-28T21:38:34.704Z,7.97
2018-06-28T21:41:02.771Z,6.87
2018-06-28T21:43:30.821Z,6.92
2018-06-28T21:45:58.864Z,7.10
2018-06-28T21:48:26.909Z,7.10
2018-06-28T21:50:54.941Z,7.12
2018-06-28T21:53:22.969Z,5.60
2018-06-28T21:55:51.031Z,5.92
2018-06-28T21:58:18.855Z,5.35
2018-06-28T22:00:46.917Z,5.60
2018-06-28T22:03:14.956Z,6.17
2018-06-28T22:05:43.041Z,5.50
2018-06-28T22:08:11.182Z,5.57
2018-06-28T22:10:39.192Z,4.20
2018-06-28T22:13:07.256Z,5.03
2018-06-28T22:15:35.300Z,4.92
2018-06-28T22:18:04.344Z,4.50
2018-06-28T22:20:33.245Z,4.28
2018-06-28T22:23:01.273Z,5.30
2018-06-28T22:25:30.386Z,4.47
2018-06-28T22:27:58.416Z,4.70
2018-06-28T22:30:26.649Z,5.40
2018-06-28T22:32:54.696Z,4.50
2018-06-28T22:35:23.038Z,5.00
2018-06-28T22:37:51.064Z,5.22
2018-06-28T22:40:19.112Z,7.85
2018-06-28T22:42:47.134Z,4.53
2018-06-28T22:45:15.164Z,5.63
2018-06-28T22:47:43.204Z,19.30
2018-06-28T22:50:11.232Z,5.37
2018-06-28T22:52:39.265Z,5.10
2018-06-28T22:55:07.303Z,4.60
2018-06-28T22:57:35.337Z,5.65
2018-06-28T23:00:03.364Z,5.30
2018-06-28T23:02:31.389Z,5.17
2018-06-28T23:04:59.228Z,5.10
2018-06-28T23:07:27.251Z,5.15
2018-06-28T23:09:55.344Z,4.53
2018-06-28T23:12:23.384Z,4.75
2018-06-28T23:14:51.424Z,4.97
2018-06-28T23:17:19.469Z,4.33
2018-06-28T23:19:47.536Z,4.67
2018-06-28T23:22:28.460Z,4.40
2018-06-28T23:24:56.519Z,4.10
2018-06-28T23:27:24.368Z,4.40
2018-06-28T23:29:52.385Z,3.60
2018-06-28T23:32:20.416Z,3.80
2018-06-28T23:34:48.252Z,3.72
2018-06-28T23:37:16.276Z,3.58
2018-06-28T23:39:44.313Z,3.60
2018-06-28T23:42:12.368Z,3.00
2018-06-28T23:44:40.396Z,2.77
2018-06-28T23:47:08.424Z,3.17
2018-06-28T23:49:36.432Z,3.10
2018-06-28T23:52:04.484Z,2.98
2018-06-28T23:54:32.517Z,2.90
2018-06-28T23:57:00.556Z,2.65
2018-06-28T23:59:28.726Z,3.47
